Aérodrome :
LOGIN :

S'inscrire | Disclaimer

   EN    FR    IT 

 










Légende :    VFR   VFR Marginal   IFR   IFR Intensif   IFR Très Intensif
Visi : 
Plafond : 
>= 8 km
>= 3000ft
5 à 8 km
1000 à 3000 ft
1500m à 5 km
500 à 1000 ft
800 à 1500m
200 à 500 ft
< 800m
< 200 ft
Symboles :   Orages  Brouillard  Fortes neiges  Fortes précipitations  Vent > 20 kt
SIGMETs :   Divers  Orages  Givrage  Turbulence  Onde Orograph.  Cendres Volcan.






- Altitude de l'aérodrome : 52 ft
- Code IATA : RNN


EKRN - Bornholm Ronne

DERNIER METAR :
  • 151520Z AUTO 24027KT 9999 // SCT057/// 08/01 Q0992

METARs EXPIRÉS :
  • 151450Z AUTO 24030G42KT 9999 // FEW032/// SCT054/// 08/01 Q0992
  • 151420Z AUTO 24026G36KT 9999 BKN029/// 08/03 Q0991
  • 151350Z AUTO 21018G29KT 9999 SCT030/// 07/05 Q0991
  • 151320Z AUTO 21019KT 9999 SCT013/// BKN048/// 07/05 Q0990
  • 151250Z AUTO 21020G31KT 180V240 9999 BKN012/// BKN045/// 07/05 Q0990

TAF TAF EKRN
Valide du 15 à 15h jusqu'au 15 à 23h UTC


151410Z 1515/1523 19025KT 9999 SCT020
TEMPO 1515/1516 23030G40KT SHRA SCT030CB
TEMPO 1516/1521 23032G50KT FEW030CB
TEMPO 1521/1523 23030G40KT



MET'MAP, la Météo Aéronautique d'un coup d'oeil ! - Copyright ORBIFLY Décembre 2007 - Disclaimer

ORBIFLY MET'MAP TEAM :

Programmation & Développement : Alexandra Zaïnal
Sur une idée originale de : Baudouin d'Aumeries
Assistance à la programmation : Marc-Olivier Méhu
Soutien technique & logistique : Manuel Goepfert

Contact : metmap@orbifly.com




SOURCES & CREDITS :

   NOAA